San Diego, California
Traffic Map
Current Weather Conditions
San Diego, California
Few Clouds
Few Clouds
26°
Feels Like: 26°
Wind Chill: 26° Ceiling: Unl
Heat Index: 26° Visibility: 10mi
Dew Point: Wind: 0mph
Humidity: 29% Direction: ° ()
Pressure: 30.02in Gusts: 0mph
Raw Report DataKSAN 170351Z 00000KT 10SM FEW250 26/06 A3002 RMK AO2 SLP164 T02560061
Traffic Incident Summary
Active as of:
Severity:
Category:
InformationThere was an issue retrieving the traffic information for this location. Please try a different location or try again shortly.
Advertisements